Time;durP1;ratioP1;P1;durP2;ratioP2;P2;SDS_P1;SDS_P2;PMS_P1;PMS_P2;Temp;Humidity;BMP_temperature;BMP_pressure;BME280_temperature;BME280_humidity;BME280_pressure;Samples;Min_cycle;Max_cycle;Signal;HPM_P1;HPM_P2
2022/12/18 07:56:25;;;;;;;45.27;22.97;;;;;;;-9.92;68.23;102167.25;6155851;23;20112;-72
2022/12/18 07:59:29;;;;;;;35.40;20.83;;;;;;;-10.51;71.30;102159.63;6156813;23;20077;-82
2022/12/18 08:02:32;;;;;;;35.72;19.95;;;;;;;-9.57;67.68;102147.22;6156787;23;20144;-80
2022/12/18 08:05:35;;;;;;;32.83;19.77;;;;;;;-9.36;66.50;102150.94;6156792;23;20040;-78
2022/12/18 08:08:41;;;;;;;38.42;20.13;;;;;;;-9.43;66.43;102141.25;6156752;23;20076;-76
2022/12/18 08:11:45;;;;;;;37.07;19.80;;;;;;;-9.15;66.44;102141.97;6156625;23;20101;-77
2022/12/18 08:14:48;;;;;;;36.50;18.77;;;;;;;-9.26;66.46;102149.78;6156603;23;20052;-78
2022/12/18 08:17:54;;;;;;;;;;;;;;;-9.25;66.32;102149.88;6157180;23;20024;-77
2022/12/18 08:21:12;;;;;;;35.40;19.20;;;;;;;-9.17;65.85;102156.19;6156617;23;19916;-78
2022/12/18 08:24:16;;;;;;;36.15;20.00;;;;;;;-9.22;65.89;102149.13;6156976;23;20079;-78
2022/12/18 08:27:19;;;;;;;29.92;19.17;;;;;;;-9.39;66.44;102145.69;6156557;23;20024;-78
2022/12/18 08:30:22;;;;;;;38.10;21.70;;;;;;;-9.41;66.66;102130.44;6156395;23;20482;-78
2022/12/18 08:33:26;;;;;;;31.30;17.95;;;;;;;-9.34;66.54;102115.56;6156401;23;20149;-79
2022/12/18 08:36:29;;;;;;;33.05;19.38;;;;;;;-9.15;65.47;102111.56;6156430;23;20028;-84
2022/12/18 08:39:34;;;;;;;35.03;18.50;;;;;;;-9.01;65.08;102108.88;6156471;23;20073;-85
2022/12/18 08:46:16;;;;;;;36.33;20.27;;;;;;;-9.04;65.68;102101.13;6102271;23;20083;-79
2022/12/18 08:49:19;;;;;;;33.73;18.17;;;;;;;-8.98;65.59;102096.38;6184589;23;20024;-79
2022/12/18 08:52:23;;;;;;;38.55;20.75;;;;;;;-9.02;65.62;102089.41;6184218;23;20521;-78
2022/12/18 08:55:26;;;;;;;39.47;20.33;;;;;;;-8.98;66.27;102097.22;6184893;23;20028;-74
2022/12/18 08:58:30;;;;;;;37.05;21.00;;;;;;;-9.02;66.14;102097.00;6176952;23;20024;-75
2022/12/18 09:01:35;;;;;;;36.28;19.80;;;;;;;-8.89;65.91;102101.91;6186020;23;20028;-75
2022/12/18 09:05:15;;;;;;;;;;;;;;;;;;;;;
2022/12/18 09:08:38;;;;;;;37.80;20.23;;;;;;;-8.86;66.15;102122.34;6156210;23;20071;-75
2022/12/18 09:11:41;;;;;;;37.17;20.52;;;;;;;-8.94;66.28;102121.06;6180003;23;20027;-74
2022/12/18 09:14:45;;;;;;;34.38;18.75;;;;;;;-8.67;65.94;102109.84;6185931;23;20354;-74
2022/12/18 09:17:49;;;;;;;31.30;18.83;;;;;;;-8.75;67.03;102121.22;6185036;23;20477;-75
2022/12/18 09:20:52;;;;;;;34.67;19.13;;;;;;;-8.55;65.62;102129.00;6185732;23;20530;-75
2022/12/18 09:23:56;;;;;;;37.70;20.17;;;;;;;-8.76;66.49;102129.66;6185740;23;20027;-75
2022/12/18 09:27:02;;;;;;;41.93;21.33;;;;;;;-8.44;65.58;102122.81;6184798;23;20067;-79
2022/12/18 09:30:07;;;;;;;36.53;20.20;;;;;;;-8.45;66.31;102111.81;6185696;23;20024;-75
2022/12/18 09:33:10;;;;;;;;;;;;;;;-8.38;66.00;102097.75;6186269;23;20028;-78
2022/12/18 09:36:16;;;;;;;39.38;20.98;;;;;;;-8.47;67.52;102102.38;6185675;23;19915;-76
2022/12/18 09:39:20;;;;;;;40.73;21.50;;;;;;;-8.12;66.74;102105.75;6185613;23;20084;-74
2022/12/18 09:42:23;;;;;;;34.72;20.42;;;;;;;-8.17;67.27;102118.19;6182064;23;20028;-76
2022/12/18 09:45:27;;;;;;;34.75;20.00;;;;;;;-8.21;67.45;102111.25;6184342;23;20039;-76
2022/12/18 09:48:42;;;;;;;35.60;19.70;;;;;;;-8.10;67.62;102110.13;6184545;23;20416;-75
2022/12/18 09:52:05;;;;;;;37.20;21.10;;;;;;;-7.96;67.91;102113.31;6185385;23;20076;-75
2022/12/18 09:55:28;;;;;;;38.97;20.77;;;;;;;-7.76;67.55;102107.50;6206247;23;20031;-75
2022/12/18 09:58:39;;;;;;;41.22;23.02;;;;;;;-7.61;66.94;102096.34;6215664;23;20027;-76
2022/12/18 10:01:43;;;;;;;39.37;21.30;;;;;;;-7.60;67.02;102080.28;6215578;23;20027;-76
2022/12/18 10:05:05;;;;;;;34.83;20.17;;;;;;;-7.52;67.71;102087.47;6215195;23;20139;-75
2022/12/18 10:08:13;;;;;;;37.43;23.37;;;;;;;-7.66;68.37;102077.47;6213920;23;20023;-75
2022/12/18 10:11:24;;;;;;;36.67;19.60;;;;;;;-7.46;68.53;102076.75;6215374;23;20505;-77
2022/12/18 10:14:56;;;;;;;37.03;21.47;;;;;;;-7.46;69.04;102076.75;6215455;23;20132;-79
2022/12/18 10:18:15;;;;;;;35.83;19.67;;;;;;;-7.09;68.98;102073.28;6215416;23;20034;-78
2022/12/18 10:21:24;;;;;;;38.63;22.10;;;;;;;-7.12;68.96;102070.63;6214422;23;20022;-77
2022/12/18 10:24:38;;;;;;;43.50;23.50;;;;;;;-7.02;68.38;102062.59;6215559;23;20355;-78
2022/12/18 10:27:41;;;;;;;;;;;;;;;-6.71;68.20;102057.16;6216305;23;20047;-77
2022/12/18 10:30:45;;;;;;;34.40;20.40;;;;;;;-7.03;69.82;102059.19;6215390;23;19966;-77
2022/12/18 10:33:49;;;;;;;39.27;22.83;;;;;;;-6.86;69.43;102044.69;6215397;23;20079;-78
2022/12/18 10:36:53;;;;;;;34.28;20.13;;;;;;;-6.75;69.22;102034.94;6214269;23;20031;-77
2022/12/18 10:40:05;;;;;;;35.97;20.03;;;;;;;-6.42;68.65;102039.69;6215378;23;20462;-77
2022/12/18 10:43:14;;;;;;;36.27;20.27;;;;;;;-6.45;70.30;102045.53;6215278;23;20071;-77
2022/12/18 10:46:20;;;;;;;34.33;20.47;;;;;;;-6.36;70.15;102045.91;6215235;23;20577;-78
2022/12/18 10:49:27;;;;;;;38.73;22.00;;;;;;;-6.24;69.72;102039.59;6215350;23;20063;-77
2022/12/18 10:52:32;;;;;;;39.73;22.83;;;;;;;-6.27;70.75;102035.25;6215278;23;20023;-78
2022/12/18 10:55:39;;;;;;;40.28;22.80;;;;;;;-6.00;69.91;102030.38;6215008;23;20027;-78
2022/12/18 10:58:58;;;;;;;44.80;24.83;;;;;;;-5.91;70.06;102025.59;6216993;23;20354;-78
2022/12/18 11:02:01;;;;;;;39.60;23.90;;;;;;;-6.07;70.55;102012.25;6198994;23;20039;-79
2022/12/18 11:05:28;;;;;;;35.60;20.63;;;;;;;-5.91;71.27;102017.97;6217215;23;20355;-78
2022/12/18 11:08:33;;;;;;;38.97;21.60;;;;;;;-5.89;71.24;102021.44;6217221;23;20088;-78
2022/12/18 11:11:37;;;;;;;44.33;23.43;;;;;;;-5.85;71.18;102030.06;6217086;23;20027;-78
2022/12/18 11:14:47;;;;;;;55.63;28.35;;;;;;;-5.78;71.89;102010.78;6217195;23;20557;-78
2022/12/18 11:17:52;;;;;;;47.50;24.97;;;;;;;-5.47;70.90;101998.38;6198895;23;20100;-80
2022/12/18 11:21:08;;;;;;;42.70;23.50;;;;;;;-5.48;72.46;101991.56;6198632;23;20020;-79
2022/12/18 11:24:26;;;;;;;35.47;20.20;;;;;;;-5.23;71.18;101997.56;6217171;23;20410;-79
2022/12/18 11:27:29;;;;;;;41.73;25.13;;;;;;;-5.18;71.87;101991.78;6217026;23;20139;-78
2022/12/18 11:30:38;;;;;;;50.60;27.55;;;;;;;-4.92;71.59;101997.78;6216939;23;20047;-79
2022/12/18 11:33:57;;;;;;;59.97;30.47;;;;;;;-4.71;70.97;101989.16;6216965;23;20035;-80
2022/12/18 11:37:14;;;;;;;53.78;31.20;;;;;;;-4.63;71.58;101982.59;6217003;23;20054;-78
2022/12/18 11:40:32;;;;;;;47.28;27.38;;;;;;;-4.63;73.25;101992.81;6216820;23;20096;-77
2022/12/18 11:44:03;;;;;;;37.60;22.75;;;;;;;-4.33;73.28;101995.53;6216930;23;20470;-78
2022/12/18 11:47:22;;;;;;;45.90;25.63;;;;;;;-4.40;74.41;101996.16;6214281;23;20074;-78
2022/12/18 11:50:52;;;;;;;40.05;23.83;;;;;;;-4.42;74.07;102002.00;6216240;23;20024;-82
2022/12/18 11:53:56;;;;;;;36.38;21.73;;;;;;;-4.49;76.18;101994.16;6216661;23;20105;-83
2022/12/18 11:57:06;;;;;;;43.83;26.92;;;;;;;-4.46;76.38;101972.97;6216416;23;20055;-80
2022/12/18 12:00:18;;;;;;;38.53;21.65;;;;;;;-4.30;76.02;101959.88;6216190;23;20020;-78
2022/12/18 12:03:44;;;;;;;31.33;19.93;;;;;;;-4.13;76.13;101969.75;6216790;23;20075;-76
2022/12/18 12:07:36;;;;;;;30.67;19.48;;;;;;;-3.96;76.19;101968.56;6216360;23;20474;-78
2022/12/18 12:10:58;;;;;;;30.48;19.13;;;;;;;-3.71;75.42;101975.25;6216693;23;20167;-77
2022/12/18 12:14:24;;;;;;;32.47;20.20;;;;;;;-3.76;75.27;101964.91;6216498;23;20027;-77
2022/12/18 12:17:38;;;;;;;35.13;20.92;;;;;;;-3.68;74.62;101965.13;6216579;23;20027;-76
2022/12/18 12:20:42;;;;;;;34.17;19.77;;;;;;;-3.51;74.60;101965.59;6216525;23;20095;-79
2022/12/18 12:24:07;;;;;;;33.67;20.73;;;;;;;-3.52;74.45;101951.09;6215464;23;20050;-76
2022/12/18 12:27:20;;;;;;;31.15;20.33;;;;;;;-3.33;74.61;101938.00;6215788;23;20027;-77
2022/12/18 12:30:49;;;;;;;29.10;18.58;;;;;;;-3.23;74.01;101941.66;6214797;23;20066;-77
2022/12/18 12:34:57;;;;;;;30.90;19.17;;;;;;;-3.12;73.91;101947.94;6215713;23;20069;-75
2022/12/18 12:38:12;;;;;;;31.50;20.60;;;;;;;-3.09;73.82;101955.72;6146254;23;20404;-77
2022/12/18 12:44:58;;;;;;;46.72;28.00;;;;;;;-3.02;73.79;101948.19;6193566;23;20026;-77
2022/12/18 12:48:05;;;;;;;36.80;24.60;;;;;;;-3.04;74.69;101946.44;6216215;23;20027;-78
2022/12/18 12:51:26;;;;;;;36.00;22.88;;;;;;;-3.04;74.51;101954.13;6216258;23;20027;-76
2022/12/18 12:54:32;;;;;;;33.58;22.13;;;;;;;-3.02;74.35;101933.69;6216037;23;20362;-77
2022/12/18 12:58:10;;;;;;;32.95;22.45;;;;;;;-2.87;73.14;101931.53;6216122;23;20092;-75
2022/12/18 13:01:20;;;;;;;27.52;20.00;;;;;;;-2.66;72.77;101913.25;6216106;23;20020;-76
2022/12/18 13:04:36;;;;;;;39.13;22.65;;;;;;;-2.62;71.63;101927.00;6215978;23;20027;-75
2022/12/18 13:07:50;;;;;;;31.40;21.33;;;;;;;-2.65;70.92;101916.69;6216363;23;20027;-76
2022/12/18 13:14:37;;;;;;;35.75;24.38;;;;;;;-2.99;70.90;101912.44;6216030;23;20082;-77
2022/12/18 13:17:41;;;;;;;31.65;21.38;;;;;;;-3.19;71.25;101904.22;6215975;23;20140;-76
2022/12/18 13:20:54;;;;;;;38.38;25.38;;;;;;;-3.18;71.73;101917.09;6215459;23;20458;-76
2022/12/18 13:24:22;;;;;;;34.38;24.30;;;;;;;-3.09;71.07;101916.47;6215088;23;20054;-78
2022/12/18 13:27:44;;;;;;;32.53;22.77;;;;;;;-2.85;70.56;101908.53;6214968;23;20351;-77
2022/12/18 13:30:50;;;;;;;33.40;22.33;;;;;;;-2.78;70.93;101918.09;6215740;23;20024;-76
2022/12/18 13:34:25;;;;;;;34.20;22.88;;;;;;;-2.71;71.25;101917.44;6213580;23;20504;-77
2022/12/18 13:37:32;;;;;;;34.15;22.17;;;;;;;-2.62;71.92;101915.09;6212223;23;20035;-78
2022/12/18 13:40:48;;;;;;;33.78;22.48;;;;;;;-2.58;72.57;101906.66;6209418;23;20068;-79
2022/12/18 13:43:52;;;;;;;35.50;23.52;;;;;;;-2.60;72.64;101917.66;6210417;23;20146;-79
2022/12/18 13:46:56;;;;;;;33.70;22.50;;;;;;;-2.64;72.38;101905.63;6210181;23;20027;-78
2022/12/18 13:50:02;;;;;;;34.05;24.55;;;;;;;-2.55;71.66;101894.72;6214180;23;20039;-79
2022/12/18 13:53:05;;;;;;;36.08;24.35;;;;;;;-2.74;72.03;101899.44;6196087;23;20028;-78
2022/12/18 13:56:15;;;;;;;37.00;24.58;;;;;;;-2.76;71.86;101902.78;6214382;23;20031;-78
2022/12/18 13:59:26;;;;;;;39.35;26.02;;;;;;;-2.81;72.09;101900.97;6214067;23;20092;-78
2022/12/18 14:02:29;;;;;;;44.33;26.33;;;;;;;-2.73;71.38;101900.28;6195979;23;20023;-78
2022/12/18 14:05:36;;;;;;;41.28;27.00;;;;;;;-2.87;71.85;101903.38;6214526;23;20102;-79
2022/12/18 14:08:41;;;;;;;39.95;25.33;;;;;;;-2.82;71.53;101906.03;6215131;23;20023;-79
2022/12/18 14:11:50;;;;;;;39.42;27.48;;;;;;;-2.81;71.65;101915.44;6213979;23;20024;-79
2022/12/18 14:15:24;;;;;;;37.25;25.20;;;;;;;-2.86;71.39;101919.59;6214365;23;20108;-92
2022/12/18 14:18:49;;;;;;;38.13;26.15;;;;;;;-2.85;71.61;101927.31;6214141;23;20658;-80
2022/12/18 14:21:53;;;;;;;39.90;24.77;;;;;;;-2.93;72.26;101920.28;6213991;23;20363;-78
2022/12/18 14:25:13;;;;;;;38.95;26.70;;;;;;;-2.86;72.19;101925.59;6213991;23;20027;-78
2022/12/18 14:28:17;;;;;;;45.30;27.65;;;;;;;-2.99;72.34;101923.53;6214000;23;20095;-77
2022/12/18 14:31:23;;;;;;;39.20;26.65;;;;;;;-2.80;71.61;101919.75;6213873;23;20155;-77
2022/12/18 14:34:27;;;;;;;39.30;25.90;;;;;;;-2.92;71.91;101924.56;6213465;23;20405;-78
2022/12/18 14:37:33;;;;;;;44.85;30.20;;;;;;;-3.00;72.25;101910.69;6211698;23;20058;-77
2022/12/18 14:41:32;;;;;;;44.80;27.48;;;;;;;-2.97;72.15;101911.63;6212045;23;20350;-77
2022/12/18 14:44:37;;;;;;;39.75;26.33;;;;;;;-3.08;72.69;101913.94;6156893;23;20070;-77
2022/12/18 14:47:45;;;;;;;39.28;26.25;;;;;;;-3.01;72.61;101914.09;6213229;23;20032;-81
2022/12/18 14:51:02;;;;;;;35.53;24.52;;;;;;;-2.96;72.60;101897.16;6213233;23;20031;-78
2022/12/18 14:54:16;;;;;;;41.90;26.45;;;;;;;-2.93;72.57;101910.03;6213179;23;20099;-78
2022/12/18 14:57:35;;;;;;;41.10;27.08;;;;;;;-3.04;72.79;101910.63;6213495;23;20450;-78
2022/12/18 15:00:44;;;;;;;42.05;26.77;;;;;;;-3.18;73.93;101909.41;6213369;23;20092;-82
2022/12/18 15:03:48;;;;;;;38.40;25.52;;;;;;;-3.10;73.79;101905.34;6213391;23;20567;-82
2022/12/18 15:07:09;;;;;;;42.80;27.58;;;;;;;-3.23;73.53;101907.53;6213607;23;20050;-74
2022/12/18 15:10:16;;;;;;;43.67;28.95;;;;;;;-3.36;73.24;101896.13;6212940;23;20023;-80
2022/12/18 15:13:24;;;;;;;43.47;28.30;;;;;;;-3.54;74.27;101907.59;6213551;23;20059;-78
2022/12/18 15:16:28;;;;;;;42.05;27.80;;;;;;;-3.41;73.15;101903.69;6213202;23;20466;-77
2022/12/18 15:19:39;;;;;;;44.67;28.85;;;;;;;-3.34;73.66;101914.94;6213155;23;20031;-75
2022/12/18 15:27:18;;;;;;;44.28;28.48;;;;;;;-3.43;72.90;101900.22;6213037;23;20496;-78
2022/12/18 15:30:24;;;;;;;46.80;29.73;;;;;;;-3.47;73.37;101907.78;6213962;23;20031;-78
2022/12/18 15:33:34;;;;;;;42.08;27.77;;;;;;;-3.40;73.17;101892.63;6214728;23;20155;-79
2022/12/18 15:36:42;;;;;;;34.90;21.73;;;;;;;-3.47;73.65;101892.44;6214798;23;20067;-79
2022/12/18 15:39:48;;;;;;;40.58;26.67;;;;;;;-3.47;74.00;101893.28;6214564;23;20028;-78
2022/12/18 15:46:19;;;;;;;45.00;28.25;;;;;;;-3.41;73.70;101890.03;6216294;23;20107;-78
2022/12/18 15:49:22;;;;;;;44.10;27.85;;;;;;;-3.38;73.56;101890.09;6216270;23;20051;-83
2022/12/18 15:52:26;;;;;;;45.30;28.88;;;;;;;-3.66;74.46;101899.59;6216475;23;20489;-80
2022/12/18 15:58:52;;;;;;;46.58;28.98;;;;;;;-3.63;74.58;101903.94;6216348;23;20031;-77
2022/12/18 16:01:56;;;;;;;54.10;34.25;;;;;;;-3.57;73.93;101907.50;6216001;23;20043;-77
2022/12/18 16:05:00;;;;;;;51.38;30.35;;;;;;;-3.63;74.63;101909.03;6197505;23;20074;-78
2022/12/18 16:08:05;;;;;;;53.42;33.63;;;;;;;-3.58;74.71;101900.66;6216209;23;20082;-78
2022/12/18 16:11:37;;;;;;;48.08;31.08;;;;;;;-3.58;74.24;101897.22;6208024;23;20032;-76
2022/12/18 16:14:56;;;;;;;47.22;30.05;;;;;;;-3.69;74.82;101896.09;6211237;23;20074;-88
2022/12/18 16:23:53;;;;;;;;;;;;;;;;;;;;;
2022/12/18 16:28:55;;;;;;;49.75;28.10;;;;;;;-3.71;75.10;101890.06;6124050;23;20576;-81
2022/12/18 16:33:35;;;;;;;52.55;32.30;;;;;;;-3.71;74.74;101896.03;6109242;23;20029;-80
2022/12/18 16:37:27;;;;;;;44.38;27.63;;;;;;;-3.59;74.93;101893.81;6107577;23;20058;-78
2022/12/18 16:41:30;;;;;;;47.65;30.95;;;;;;;-3.49;74.84;101894.06;6216441;23;20023;-80
2022/12/18 16:43:57;;;;;;;43.70;27.55;;;;;;;-3.52;74.83;101900.81;6216349;23;20098;-81
2022/12/18 16:47:01;;;;;;;49.13;30.17;;;;;;;-3.57;74.91;101892.19;6197757;23;20027;-79
2022/12/18 16:50:05;;;;;;;48.60;31.45;;;;;;;-3.56;74.66;101890.47;6216027;23;20031;-79
2022/12/18 16:53:09;;;;;;;51.88;32.05;;;;;;;-3.65;75.42;101878.31;6216151;23;20123;-79
2022/12/18 16:56:12;;;;;;;49.03;29.77;;;;;;;-3.70;75.74;101871.31;6216183;23;20035;-79
2022/12/18 16:59:16;;;;;;;43.83;26.75;;;;;;;-3.57;75.95;101871.72;6216214;23;20027;-80
2022/12/18 17:02:25;;;;;;;47.60;29.70;;;;;;;-3.44;75.12;101864.38;6216443;23;20402;-79
2022/12/18 17:05:28;;;;;;;44.42;29.10;;;;;;;-3.49;75.27;101863.38;6216145;23;20096;-80
2022/12/18 17:08:32;;;;;;;47.63;28.50;;;;;;;-3.66;75.85;101860.38;6216382;23;20027;-79
2022/12/18 17:11:37;;;;;;;45.65;28.77;;;;;;;-3.76;76.46;101856.72;6214466;23;20074;-78
2022/12/18 17:14:42;;;;;;;45.65;28.52;;;;;;;-3.48;75.55;101844.66;6213741;23;20037;-79
2022/12/18 17:17:46;;;;;;;48.15;29.25;;;;;;;-3.49;75.38;101853.16;6197327;23;20047;-79
2022/12/18 17:20:49;;;;;;;47.53;30.05;;;;;;;-3.42;75.40;101855.91;6196847;23;20516;-80
2022/12/18 17:23:52;;;;;;;;;;;;;;;-3.47;75.12;101851.50;6215939;23;20457;-79
2022/12/18 17:26:55;;;;;;;50.90;29.95;;;;;;;-3.54;75.03;101846.25;6215317;23;19914;-79
2022/12/18 17:29:58;;;;;;;42.50;24.27;;;;;;;-3.55;75.65;101846.19;6215777;23;20028;-79
2022/12/18 17:33:39;;;;;;;;;;;;;;;;;;;;;
2022/12/18 17:36:54;;;;;;;48.90;27.77;;;;;;;-3.56;76.01;101847.03;6215875;23;20512;-78
2022/12/18 17:40:01;;;;;;;49.17;28.17;;;;;;;-3.46;75.51;101848.13;6215777;23;20512;-78
2022/12/18 17:43:12;;;;;;;48.80;28.95;;;;;;;-3.64;76.44;101839.13;6215816;23;20062;-78
2022/12/18 17:46:24;;;;;;;51.10;29.13;;;;;;;-3.52;76.54;101839.44;6215993;23;20024;-78
2022/12/18 17:49:33;;;;;;;50.67;30.65;;;;;;;-3.36;75.37;101834.75;6215624;23;20519;-79
2022/12/18 17:52:37;;;;;;;45.90;28.02;;;;;;;-3.56;76.76;101841.91;6214752;23;20028;-79
2022/12/18 17:55:52;;;;;;;48.13;28.70;;;;;;;-3.43;75.96;101848.22;6215704;23;20103;-77
2022/12/18 17:58:56;;;;;;;57.28;33.55;;;;;;;-3.30;75.93;101850.25;6215640;23;20026;-78
2022/12/18 18:01:59;;;;;;;60.25;35.53;;;;;;;-3.40;75.66;101853.41;6215573;23;20096;-77
2022/12/18 18:05:03;;;;;;;56.17;34.30;;;;;;;-3.41;76.00;101851.69;6215072;23;20513;-78
2022/12/18 18:08:07;;;;;;;57.30;32.80;;;;;;;-3.19;74.93;101846.28;6215101;23;20024;-78
2022/12/18 18:14:37;;;;;;;54.75;33.00;;;;;;;-3.14;75.57;101836.16;6215758;23;20497;-78
2022/12/18 18:17:41;;;;;;;48.88;29.27;;;;;;;-3.09;75.33;101825.22;6215458;23;20090;-78
2022/12/18 18:20:47;;;;;;;46.97;29.10;;;;;;;-3.17;74.98;101821.59;6215327;23;20023;-78
2022/12/18 18:23:51;;;;;;;50.75;30.90;;;;;;;-3.19;74.91;101823.25;6215439;23;20520;-78
2022/12/18 18:26:55;;;;;;;53.60;32.40;;;;;;;-3.11;74.92;101821.75;6215387;23;20028;-79
2022/12/18 18:30:07;;;;;;;51.45;30.38;;;;;;;-3.19;75.46;101830.94;6215278;23;20351;-78
2022/12/18 18:33:30;;;;;;;54.05;31.98;;;;;;;-3.17;75.30;101813.91;6215297;23;20086;-78
2022/12/18 18:36:42;;;;;;;50.33;30.02;;;;;;;-3.15;75.55;101808.84;6215308;23;20024;-78
2022/12/18 18:40:01;;;;;;;52.65;31.55;;;;;;;-3.14;75.25;101808.88;6213410;23;20086;-79
2022/12/18 18:43:10;;;;;;;73.85;46.28;;;;;;;-3.13;75.22;101800.34;6178711;23;20525;-79
2022/12/18 18:50:36;;;;;;;50.35;32.28;;;;;;;-3.10;75.34;101782.53;6213897;23;20031;-78
2022/12/18 18:53:53;;;;;;;52.00;32.38;;;;;;;-3.04;74.75;101767.31;6213172;23;20078;-79
2022/12/18 18:56:56;;;;;;;50.17;31.85;;;;;;;-2.99;75.03;101764.03;6210330;23;20481;-81
2022/12/18 19:00:00;;;;;;;51.63;30.77;;;;;;;-3.10;75.66;101767.19;6211715;23;20024;-76
2022/12/18 19:03:05;;;;;;;52.20;31.92;;;;;;;-3.07;75.46;101764.69;6213175;23;20023;-84
2022/12/18 19:06:13;;;;;;;51.72;31.83;;;;;;;-3.10;75.43;101762.06;6213917;23;20104;-77
2022/12/18 19:09:17;;;;;;;52.60;31.15;;;;;;;-3.04;75.21;101762.19;6214103;23;20075;-76
2022/12/18 19:15:44;;;;;;;51.05;31.75;;;;;;;-3.00;75.39;101763.13;6215143;23;20508;-80
2022/12/18 19:18:48;;;;;;;50.03;31.05;;;;;;;-3.02;75.73;101754.56;6215824;23;20075;-81
2022/12/18 19:21:52;;;;;;;54.95;32.30;;;;;;;-2.87;75.42;101761.72;6217079;23;20019;-82
2022/12/18 19:25:01;;;;;;;59.15;35.47;;;;;;;-2.84;75.39;101755.00;6213203;23;20053;-80
2022/12/18 19:28:15;;;;;;;51.33;30.40;;;;;;;-2.87;75.52;101760.06;6209287;23;20106;-80
2022/12/18 19:31:22;;;;;;;47.78;30.67;;;;;;;-2.99;75.97;101752.09;6214360;23;20024;-81
2022/12/18 19:34:49;;;;;;;54.67;32.78;;;;;;;-2.71;74.77;101740.78;6213324;23;20481;-82
2022/12/18 19:38:01;;;;;;;56.30;33.50;;;;;;;-2.87;75.31;101741.25;6212605;23;20117;-78
2022/12/18 19:41:06;;;;;;;55.40;33.28;;;;;;;-2.88;75.33;101730.16;6215481;23;20095;-79
2022/12/18 19:44:15;;;;;;;56.00;35.08;;;;;;;-3.04;76.19;101746.84;6215825;23;20051;-79
2022/12/18 19:47:18;;;;;;;55.28;33.13;;;;;;;-2.81;75.65;101749.06;6197340;23;20027;-78
2022/12/18 19:50:22;;;;;;;49.63;32.08;;;;;;;-2.91;75.76;101731.78;6215540;23;20106;-78
2022/12/18 19:53:25;;;;;;;52.58;33.42;;;;;;;-2.99;76.30;101738.44;6215734;23;20070;-79
2022/12/18 19:56:33;;;;;;;53.95;33.60;;;;;;;-2.88;76.36;101731.84;6206936;23;20079;-80
2022/12/18 19:59:36;;;;;;;56.10;34.55;;;;;;;-2.85;76.11;101747.28;6195235;23;20084;-81
2022/12/18 20:02:40;;;;;;;56.60;37.58;;;;;;;-2.81;76.63;101751.63;6209191;23;20110;-78
2022/12/18 20:05:43;;;;;;;;;;;;;;;-2.92;76.23;101755.66;6215898;23;20079;-83
2022/12/18 20:08:46;;;;;;;50.13;31.97;;;;;;;-2.88;76.52;101753.19;6215482;23;20291;-82
2022/12/18 20:11:50;;;;;;;50.88;32.42;;;;;;;-2.85;76.81;101757.50;6215410;23;20322;-80
2022/12/18 20:14:54;;;;;;;53.00;32.90;;;;;;;-2.82;76.60;101757.56;6215631;23;20099;-79
2022/12/18 20:17:57;;;;;;;54.08;31.92;;;;;;;-2.96;77.54;101749.59;6216283;23;20023;-78
2022/12/18 20:21:01;;;;;;;48.78;29.90;;;;;;;-2.89;77.21;101743.78;6216439;23;20394;-79
2022/12/18 20:24:07;;;;;;;50.92;30.13;;;;;;;-2.72;76.91;101748.41;6216313;23;20067;-80
2022/12/18 20:27:12;;;;;;;51.75;32.92;;;;;;;-2.70;76.47;101754.44;6216285;23;20067;-77
2022/12/18 20:30:16;;;;;;;50.17;31.65;;;;;;;-2.66;76.46;101733.19;6215182;23;20028;-78
2022/12/18 20:33:19;;;;;;;56.25;31.83;;;;;;;-2.68;75.90;101724.59;6196681;23;20528;-78
2022/12/18 20:36:22;;;;;;;47.83;29.42;;;;;;;-2.74;76.62;101715.09;6215232;23;20083;-78
2022/12/18 20:39:26;;;;;;;54.35;31.95;;;;;;;-2.76;76.79;101713.34;6215367;23;20589;-78
2022/12/18 20:42:29;;;;;;;53.92;31.13;;;;;;;-2.68;76.99;101720.34;6215501;23;20083;-79
2022/12/18 20:45:32;;;;;;;55.92;33.22;;;;;;;-2.66;76.40;101721.22;6215696;23;20099;-79
2022/12/18 20:48:36;;;;;;;46.88;29.23;;;;;;;-2.60;76.77;101734.16;6214985;23;20027;-78
2022/12/18 20:51:41;;;;;;;51.85;31.08;;;;;;;-2.77;77.67;101734.66;6214653;23;20363;-78
2022/12/18 20:54:48;;;;;;;49.30;32.78;;;;;;;-2.53;76.76;101730.03;6215022;23;20032;-80
2022/12/18 20:57:51;;;;;;;54.22;32.83;;;;;;;-2.45;76.57;101735.34;6215299;23;20216;-81
2022/12/18 21:01:06;;;;;;;54.28;33.60;;;;;;;-2.98;78.88;101737.59;6215187;23;20023;-78
2022/12/18 21:04:09;;;;;;;53.85;32.00;;;;;;;-2.79;79.00;101737.16;6215118;23;20027;-81
2022/12/18 21:07:12;;;;;;;57.58;34.90;;;;;;;-2.72;78.18;101736.47;6196976;23;20366;-80
2022/12/18 21:10:16;;;;;;;61.13;36.10;;;;;;;-2.71;78.19;101740.78;6215053;23;20094;-80
2022/12/18 21:13:19;;;;;;;;;;;;;;;-2.59;77.83;101733.31;6215680;23;20147;-80
2022/12/18 21:16:23;;;;;;;57.50;34.05;;;;;;;-2.58;77.81;101736.78;6215026;23;19918;-79
2022/12/18 21:19:27;;;;;;;47.78;31.35;;;;;;;-2.51;77.25;101732.66;6214786;23;20024;-79
2022/12/18 21:22:31;;;;;;;52.30;31.30;;;;;;;-2.66;78.15;101728.91;6214977;23;20023;-78
2022/12/18 21:25:34;;;;;;;47.75;28.83;;;;;;;-2.66;78.76;101723.78;6214889;23;20075;-78
2022/12/18 21:28:38;;;;;;;55.10;34.10;;;;;;;-2.67;78.90;101729.75;6214993;23;20088;-80
2022/12/18 21:31:44;;;;;;;60.55;35.65;;;;;;;-2.53;77.71;101731.75;6214758;23;20027;-79
2022/12/18 21:34:47;;;;;;;48.38;30.55;;;;;;;-2.69;78.67;101736.53;6214680;23;20059;-79
2022/12/18 21:37:50;;;;;;;56.53;31.08;;;;;;;-2.67;78.69;101734.88;6214900;23;20023;-79
2022/12/18 21:40:56;;;;;;;52.08;31.83;;;;;;;-2.55;78.26;101741.97;6214494;23;20027;-80
2022/12/18 21:44:06;;;;;;;51.25;31.77;;;;;;;-2.46;78.10;101736.16;6214773;23;20039;-79
2022/12/18 21:47:11;;;;;;;51.42;32.15;;;;;;;-2.41;77.36;101732.00;6214572;23;20481;-80
2022/12/18 21:50:15;;;;;;;52.55;32.00;;;;;;;-2.40;77.82;101731.16;6214510;23;20039;-81
2022/12/18 21:53:19;;;;;;;54.95;33.38;;;;;;;-2.60;78.81;101725.63;6214748;23;20379;-81
2022/12/18 21:56:23;;;;;;;49.25;29.52;;;;;;;-2.61;78.27;101727.31;6214735;23;20066;-81
2022/12/18 21:59:34;;;;;;;46.83;30.42;;;;;;;-2.53;78.74;101734.28;6214571;23;20477;-80
2022/12/18 22:02:37;;;;;;;52.72;32.22;;;;;;;-2.42;77.87;101735.41;6214474;23;20538;-80
2022/12/18 22:05:40;;;;;;;47.53;28.38;;;;;;;-2.35;77.89;101732.13;6214652;23;20039;-81
2022/12/18 22:08:45;;;;;;;54.00;32.60;;;;;;;-2.40;77.93;101732.00;6214531;23;20350;-80
2022/12/18 22:11:49;;;;;;;48.15;30.02;;;;;;;-2.39;78.00;101738.88;6214396;23;20071;-80
2022/12/18 22:14:53;;;;;;;50.28;30.60;;;;;;;-2.63;79.23;101734.09;6195902;23;20178;-80
2022/12/18 22:17:58;;;;;;;51.25;30.73;;;;;;;-2.50;79.13;101729.25;6214292;23;20047;-80
2022/12/18 22:21:03;;;;;;;46.67;30.52;;;;;;;-2.27;78.59;101722.00;6214353;23;20100;-80
2022/12/18 22:24:24;;;;;;;48.33;31.08;;;;;;;-2.25;78.09;101721.22;6214424;23;20075;-81
2022/12/18 22:27:28;;;;;;;51.85;31.67;;;;;;;-2.26;77.96;101708.38;6214339;23;20306;-81
2022/12/18 22:30:31;;;;;;;50.90;31.52;;;;;;;-2.25;77.94;101710.09;6214165;23;20027;-80
2022/12/18 22:33:34;;;;;;;48.92;30.38;;;;;;;-2.23;78.04;101706.75;6214122;23;20026;-80
2022/12/18 22:36:41;;;;;;;48.38;30.73;;;;;;;-2.25;78.31;101695.59;6214307;23;20078;-80
2022/12/18 22:39:44;;;;;;;58.50;35.63;;;;;;;-2.37;78.91;101705.59;6214293;23;20028;-80
2022/12/18 22:42:47;;;;;;;70.45;42.05;;;;;;;-2.45;79.52;101702.03;6213253;23;20090;-79
2022/12/18 22:45:51;;;;;;;54.95;32.97;;;;;;;-2.50;78.97;101701.06;6214101;23;20343;-77
2022/12/18 22:48:54;;;;;;;55.67;33.28;;;;;;;-2.46;79.42;101695.16;6214088;23;20090;-79
2022/12/18 22:52:00;;;;;;;51.72;31.05;;;;;;;-2.47;79.29;101696.88;6214565;23;20075;-80
2022/12/18 22:55:04;;;;;;;51.70;30.52;;;;;;;-2.39;79.33;101697.03;6217288;23;20110;-81
2022/12/18 22:58:08;;;;;;;50.95;32.17;;;;;;;-2.44;80.07;101699.50;6217539;23;20023;-80
2022/12/18 23:01:18;;;;;;;53.30;31.77;;;;;;;-2.26;78.78;101693.00;6217544;23;20063;-80
2022/12/18 23:04:22;;;;;;;48.85;29.88;;;;;;;-2.14;78.03;101691.53;6217467;23;20027;-80